Sunday, September 23, 2018, 4:30 AM GMT
Back to Local

CWNQ, Nicolet Automatic Weather Reporting System

Location: , , Canada Lat: 46.217
Local Time: 4:30 AM GMT ( 4:30 GMT) Lon: -72.65
Time Zone: GMT Elev: 32 ft

Show me the last for .
Show Coded

Time T Td Feel RH Dir Speed Gust Alt SLP Vis Weather Sky Remarks
2018-09-23 04:00 42 38 - 87 120° 1 - - 30.19 0 None
2018-09-23 03:00 45 41 43 85 130° 3 - - 30.19 0 None
2018-09-23 02:00 53 38 - 58 280° 5 - - 30.18 0 None
2018-09-23 01:00 52 39 - 61 240° 6 - - 30.18 0 None
2018-09-23 00:00 55 33 - 43 280° 6 - - 30.17 0 None
2018-09-22 23:00 56 33 - 41 270° 9 - - 30.16 0 None
2018-09-22 22:00 58 30 - 34 270° 10 - - 30.16 0 None
2018-09-22 21:00 59 32 - 35 250° 8 - - 30.15 0 None
2018-09-22 20:00 60 33 - 36 250° 8 - - 30.15 0 None
2018-09-22 19:00 59 31 - 34 280° 7 - - 30.15 0 None
2018-09-22 18:00 59 34 - 38 270° 9 - - 30.17 0 None
2018-09-22 17:00 58 34 - 40 280° 9 - - 30.18 0 None
2018-09-22 16:00 56 35 - 45 270° 9 - - 30.18 0 None
2018-09-22 15:00 55 38 - 52 260° 9 - - 30.18 0 None
2018-09-22 14:00 53 35 - 51 290° 8 - - 30.16 0 None
2018-09-22 13:00 52 36 - 53 300° 8 - - 30.14 0 None
2018-09-22 12:00 49 35 46 57 320° 8 - - 30.09 0 Peak wind: 20 mph (18 kts) from 300° at 13 min
2018-09-22 11:00 50 35 46 56 310° 9 - - 30.05 0 Pressure rising rapidly
2018-09-22 10:00 52 38 - 58 320° 9 - - 29.99 0 Peak wind: 24 mph (21 kts) from 320° at 18 min
Pressure rising rapidly
2018-09-22 09:00 52 39 - 60 300° 12 20 - 29.91 0 Peak wind: 26 mph (23 kts) from 290° at 10 min
Pressure rising rapidly
2018-09-22 08:00 57 43 - 59 310° 20 30 - 29.80 0 Peak wind: 29 mph (26 kts) from 310° at 57 min
Pressure rising rapidly
2018-09-22 07:00 63 48 - 58 270° 18 29 - 29.70 0 Peak wind: 33 mph (29 kts) from 280° at 19 min
Pressure rising rapidly
2018-09-22 06:00 67 55 - 64 250° 21 31 - 29.61 0 Peak wind: 34 mph (30 kts) from 240° at 26 min
2018-09-22 05:00 69 63 - 80 230° 21 30 - 29.55 0 Peak wind: 29 mph (26 kts) from 240° at 59 min

Support USWX by starting your Amazon purchase here.